Terminal Aerodrome Forecast
Issued by NWS Goodland, KS

Home | Current Version | Previous Version | Text Only | Print | Product List | Glossary On
Versions: 1 2 3 4 5 6 7 8 9 10 11 12 13 14 15
000
FTUS43 KGLD 231751
TAFGLD
TAF
KGLD 231751Z 2318/2418 34033G45KT 1 1/2SM -SN BLSN FEW014 OVC028
      TEMPO 2319/2321 3SM BLSN
     FM232100 35025G40KT 3SM BLSN OVC025
     FM240000 35020G30KT P6SM OVC025
     FM240600 33015G20KT P6SM SCT025
     FM241200 31013KT P6SM SKC=

USA.gov is the U.S. government's official web portal to all federal, state and local government web resources and services.